createdAt,value
2022-08-26T00:00:19.986Z,22.80
2022-08-26T00:02:47.951Z,22.80
2022-08-26T00:05:16.370Z,22.60
2022-08-26T00:07:45.515Z,22.60
2022-08-26T00:10:15.789Z,22.40
2022-08-26T00:12:43.958Z,22.30
2022-08-26T00:15:15.873Z,22.30
2022-08-26T00:17:44.972Z,22.30
2022-08-26T00:20:16.699Z,22.40
2022-08-26T00:22:44.901Z,22.30
2022-08-26T00:25:15.962Z,22.30
2022-08-26T00:27:45.710Z,22.20
2022-08-26T00:30:16.989Z,22.20
2022-08-26T00:32:51.324Z,22.10
2022-08-26T00:35:20.683Z,22.20
2022-08-26T00:37:48.877Z,22.20
2022-08-26T00:40:22.350Z,22.30
2022-08-26T00:42:50.759Z,22.20
2022-08-26T00:45:18.941Z,22.40
2022-08-26T00:47:51.244Z,22.30
2022-08-26T00:50:24.033Z,22.10
2022-08-26T00:52:55.687Z,22.20
2022-08-26T00:55:34.633Z,22.10
2022-08-26T00:58:08.518Z,22.30
2022-08-26T01:00:36.594Z,22.30
2022-08-26T01:03:05.599Z,22.20
2022-08-26T01:05:40.345Z,22.20
2022-08-26T01:08:08.372Z,22.10
2022-08-26T01:10:37.915Z,22.00
2022-08-26T01:13:10.163Z,22.20
2022-08-26T01:15:43.407Z,22.30
2022-08-26T01:18:13.839Z,22.20
2022-08-26T01:20:52.827Z,22.10
2022-08-26T01:23:29.312Z,22.10
2022-08-26T01:26:01.668Z,22.10
2022-08-26T01:28:33.737Z,22.10
2022-08-26T01:31:05.348Z,22.10
2022-08-26T01:33:42.096Z,22.10
2022-08-26T01:36:12.961Z,22.10
2022-08-26T01:38:43.724Z,22.10
2022-08-26T01:41:16.243Z,22.10
2022-08-26T01:43:51.867Z,22.10
2022-08-26T01:46:21.976Z,22.00
2022-08-26T01:48:54.482Z,21.90
2022-08-26T01:51:25.572Z,21.80
2022-08-26T01:53:57.888Z,22.00
2022-08-26T01:56:33.160Z,22.10
2022-08-26T01:59:07.920Z,22.10
2022-08-26T02:01:37.797Z,22.10
2022-08-26T02:04:16.060Z,22.00
2022-08-26T02:06:45.317Z,21.90
2022-08-26T02:09:15.756Z,21.80
2022-08-26T02:11:45.122Z,21.80
2022-08-26T02:14:17.965Z,22.00
2022-08-26T02:16:50.350Z,21.90
2022-08-26T02:19:23.538Z,21.90
2022-08-26T02:21:53.265Z,21.80
2022-08-26T02:24:27.509Z,21.90
2022-08-26T02:26:57.593Z,21.70
2022-08-26T02:29:31.824Z,21.80
2022-08-26T02:32:00.168Z,21.60
2022-08-26T02:34:31.948Z,21.60
2022-08-26T02:37:01.757Z,21.50
2022-08-26T02:39:32.256Z,21.40
2022-08-26T02:42:00.348Z,21.60
2022-08-26T02:44:31.602Z,21.30
2022-08-26T02:47:01.789Z,21.10
2022-08-26T02:49:30.437Z,21.00
2022-08-26T02:52:01.942Z,20.80
2022-08-26T02:54:31.526Z,20.80
2022-08-26T02:57:01.630Z,21.00
2022-08-26T02:59:31.332Z,20.80
2022-08-26T03:02:00.403Z,20.80
2022-08-26T03:04:29.524Z,20.90
2022-08-26T03:07:01.441Z,21.00
2022-08-26T03:09:30.975Z,21.10
2022-08-26T03:11:59.051Z,21.10
2022-08-26T03:14:27.682Z,20.90
2022-08-26T03:16:57.862Z,20.60
2022-08-26T03:19:27.733Z,20.70
2022-08-26T03:21:57.885Z,20.60
2022-08-26T03:24:26.607Z,20.50
2022-08-26T03:26:56.033Z,20.40
2022-08-26T03:29:42.026Z,20.40
2022-08-26T03:32:10.994Z,20.50
2022-08-26T03:34:39.022Z,20.60
2022-08-26T03:37:07.705Z,20.60
2022-08-26T03:39:36.217Z,20.70
2022-08-26T03:42:06.259Z,20.60
2022-08-26T03:44:37.030Z,20.60
2022-08-26T03:47:10.198Z,20.60
2022-08-26T03:49:38.456Z,20.80
2022-08-26T03:52:07.701Z,20.60
2022-08-26T03:54:35.683Z,20.60
2022-08-26T03:57:05.332Z,20.60
2022-08-26T03:59:33.783Z,20.60
2022-08-26T04:02:02.036Z,20.40
2022-08-26T04:04:30.721Z,20.50
2022-08-26T04:07:00.940Z,20.60
2022-08-26T04:09:29.177Z,20.60
2022-08-26T04:11:58.624Z,20.60
2022-08-26T04:14:31.419Z,20.60
2022-08-26T04:17:00.576Z,20.50
2022-08-26T04:19:28.572Z,20.50
2022-08-26T04:21:56.685Z,20.30
2022-08-26T04:24:27.998Z,20.20
2022-08-26T04:26:56.546Z,20.20
2022-08-26T04:29:28.233Z,20.30
2022-08-26T04:31:57.000Z,20.30
2022-08-26T04:34:29.393Z,20.50
2022-08-26T04:36:57.776Z,20.60
2022-08-26T04:39:27.675Z,20.60
2022-08-26T04:41:57.873Z,20.40
2022-08-26T04:44:27.629Z,20.30
2022-08-26T04:46:58.380Z,20.40
2022-08-26T04:49:27.636Z,20.40
2022-08-26T04:51:56.083Z,20.50
2022-08-26T04:54:25.131Z,20.60
2022-08-26T04:56:53.289Z,20.70
2022-08-26T04:59:21.339Z,20.70
2022-08-26T05:01:52.290Z,20.70
2022-08-26T05:04:22.138Z,20.60
2022-08-26T05:06:50.525Z,20.60
2022-08-26T05:09:20.318Z,20.60
2022-08-26T05:11:52.073Z,20.70
2022-08-26T05:14:21.166Z,20.70
2022-08-26T05:16:50.755Z,20.80
2022-08-26T05:19:19.488Z,20.90
2022-08-26T05:21:49.470Z,20.90
2022-08-26T05:24:18.280Z,21.00
2022-08-26T05:26:46.951Z,21.00
2022-08-26T05:29:16.134Z,21.00
2022-08-26T05:31:44.956Z,21.00
2022-08-26T05:34:13.322Z,21.00
2022-08-26T05:36:42.170Z,21.00
2022-08-26T05:39:11.833Z,21.00
2022-08-26T05:41:42.102Z,21.00
2022-08-26T05:44:14.037Z,21.10
2022-08-26T05:46:43.965Z,21.20
2022-08-26T05:49:13.072Z,21.30
2022-08-26T05:51:41.851Z,21.40
2022-08-26T05:54:11.307Z,21.40
2022-08-26T05:56:40.306Z,21.40
2022-08-26T05:59:15.353Z,21.50
2022-08-26T06:01:44.715Z,21.50
2022-08-26T06:04:13.119Z,21.50
2022-08-26T06:06:42.940Z,21.50
2022-08-26T06:09:13.082Z,21.60
2022-08-26T06:11:41.167Z,21.60
2022-08-26T06:14:11.811Z,21.70
2022-08-26T06:16:45.234Z,21.70
2022-08-26T06:19:19.283Z,21.70
2022-08-26T06:21:54.310Z,21.90
2022-08-26T06:24:41.940Z,22.00
2022-08-26T06:27:13.769Z,22.10
2022-08-26T06:29:43.280Z,22.10
2022-08-26T06:32:11.540Z,22.20
2022-08-26T06:34:40.583Z,22.30
2022-08-26T06:37:09.920Z,22.40
2022-08-26T06:39:40.217Z,22.50
2022-08-26T06:42:11.997Z,22.60
2022-08-26T06:44:40.958Z,22.60
2022-08-26T06:47:09.178Z,22.60
2022-08-26T06:49:38.065Z,22.70
2022-08-26T06:52:07.795Z,22.90
2022-08-26T06:54:43.032Z,22.90
2022-08-26T06:57:11.466Z,23.00
2022-08-26T06:59:39.580Z,22.90
2022-08-26T07:02:09.111Z,23.10
2022-08-26T07:04:41.844Z,23.00
2022-08-26T07:07:13.986Z,23.10
2022-08-26T07:09:43.513Z,23.10
2022-08-26T07:12:12.118Z,23.10
2022-08-26T07:14:41.300Z,23.20
2022-08-26T07:17:15.656Z,23.10
2022-08-26T07:19:44.862Z,23.10
2022-08-26T07:22:14.087Z,23.00
2022-08-26T07:24:54.869Z,23.00
2022-08-26T07:27:23.944Z,23.10
2022-08-26T07:29:52.189Z,23.00
2022-08-26T07:32:22.930Z,23.10
2022-08-26T07:34:51.115Z,23.10
2022-08-26T07:37:19.693Z,23.10
2022-08-26T07:39:49.994Z,23.20
2022-08-26T07:42:19.649Z,23.20
2022-08-26T07:44:47.992Z,23.30
2022-08-26T07:47:24.906Z,23.40
2022-08-26T07:49:56.580Z,23.40
2022-08-26T07:52:27.207Z,23.40
2022-08-26T07:55:01.447Z,23.40
2022-08-26T07:57:34.506Z,23.60
2022-08-26T08:00:03.803Z,23.70
2022-08-26T08:02:31.863Z,23.90
2022-08-26T08:05:00.164Z,23.90
2022-08-26T08:07:44.979Z,24.20
2022-08-26T08:10:18.999Z,24.20
2022-08-26T08:12:49.740Z,24.30
2022-08-26T08:15:20.114Z,24.60
2022-08-26T08:17:50.508Z,24.70
2022-08-26T08:20:20.945Z,25.00
2022-08-26T08:22:51.739Z,25.10
2022-08-26T08:25:24.557Z,24.80
2022-08-26T08:27:52.651Z,24.70
2022-08-26T08:30:23.316Z,25.00
2022-08-26T08:32:51.751Z,25.10
2022-08-26T08:35:23.761Z,25.30
2022-08-26T08:37:54.782Z,25.20
2022-08-26T08:40:27.104Z,25.30
2022-08-26T08:43:01.123Z,25.70
2022-08-26T08:45:36.742Z,25.80
2022-08-26T08:48:12.854Z,25.80
2022-08-26T08:50:45.705Z,26.00
2022-08-26T08:53:16.981Z,26.10
2022-08-26T08:55:54.358Z,26.10
2022-08-26T08:58:30.182Z,25.90
2022-08-26T09:01:04.565Z,25.80
2022-08-26T09:03:46.501Z,25.70
2022-08-26T09:06:18.847Z,25.80
2022-08-26T09:08:50.087Z,25.90
2022-08-26T09:11:21.405Z,25.90
2022-08-26T09:13:52.522Z,25.90
2022-08-26T09:16:27.056Z,26.10
2022-08-26T09:19:14.441Z,26.40
2022-08-26T09:21:42.634Z,26.50
2022-08-26T09:24:11.360Z,26.40
2022-08-26T09:26:48.569Z,26.70
2022-08-26T09:29:24.832Z,26.90
2022-08-26T09:32:14.658Z,27.00
2022-08-26T09:34:55.432Z,26.90
2022-08-26T09:37:39.185Z,27.10
2022-08-26T09:40:30.386Z,27.30
2022-08-26T09:43:22.609Z,27.10
2022-08-26T09:45:58.482Z,27.30
2022-08-26T09:48:31.715Z,27.30
2022-08-26T09:51:06.909Z,27.40
2022-08-26T09:53:38.899Z,27.20
2022-08-26T09:56:18.982Z,27.00
2022-08-26T09:58:50.173Z,26.70
2022-08-26T10:01:30.099Z,26.50
2022-08-26T10:04:09.716Z,26.30
2022-08-26T10:06:47.763Z,26.20
2022-08-26T10:09:19.681Z,26.20
2022-08-26T10:11:52.105Z,26.10
2022-08-26T10:14:26.471Z,26.20
2022-08-26T10:16:59.862Z,26.10
2022-08-26T10:19:41.836Z,26.10
2022-08-26T10:22:28.870Z,26.10
2022-08-26T10:25:03.263Z,26.30
2022-08-26T10:27:40.484Z,26.30
2022-08-26T10:30:23.813Z,26.30
2022-08-26T10:32:55.793Z,26.30
2022-08-26T10:35:24.902Z,26.30
2022-08-26T10:37:57.194Z,26.30
2022-08-26T10:40:28.767Z,26.40
2022-08-26T10:43:07.213Z,26.50
2022-08-26T10:45:47.625Z,26.50
2022-08-26T10:48:22.785Z,26.70
2022-08-26T10:50:51.429Z,26.60
2022-08-26T10:53:32.697Z,26.80
2022-08-26T10:56:06.571Z,26.90
2022-08-26T10:59:02.592Z,26.70
2022-08-26T11:01:50.791Z,26.90
2022-08-26T11:04:34.940Z,27.10
2022-08-26T11:07:41.328Z,27.10
2022-08-26T11:11:04.338Z,27.20
2022-08-26T11:14:02.665Z,27.20
2022-08-26T11:16:36.013Z,27.20
2022-08-26T11:19:13.938Z,27.40
2022-08-26T11:21:49.528Z,27.40
2022-08-26T11:25:00.443Z,27.70
2022-08-26T11:27:58.042Z,28.00
2022-08-26T11:30:44.019Z,27.90
2022-08-26T11:33:59.642Z,27.90
2022-08-26T11:36:57.242Z,28.20
2022-08-26T11:39:30.457Z,28.40
2022-08-26T11:42:03.086Z,28.70
2022-08-26T11:44:40.654Z,28.80
2022-08-26T11:47:25.775Z,29.30
2022-08-26T11:50:13.162Z,29.10
2022-08-26T11:52:43.192Z,29.60
2022-08-26T11:55:16.206Z,30.00
2022-08-26T11:57:47.180Z,29.90
2022-08-26T12:00:26.847Z,30.30
2022-08-26T12:03:01.097Z,29.90
2022-08-26T12:05:37.553Z,30.10
2022-08-26T12:08:10.478Z,29.70
2022-08-26T12:10:39.721Z,29.60
2022-08-26T12:13:08.775Z,29.40
2022-08-26T12:15:36.816Z,29.70
2022-08-26T12:18:29.348Z,30.20
2022-08-26T12:21:02.365Z,30.30
2022-08-26T12:23:42.124Z,29.90
2022-08-26T12:26:19.349Z,29.90
2022-08-26T12:28:49.559Z,29.70
2022-08-26T12:31:31.197Z,30.00
2022-08-26T12:34:04.005Z,30.40
2022-08-26T12:36:36.180Z,30.40
2022-08-26T12:39:09.368Z,30.10
2022-08-26T12:41:52.902Z,29.90
2022-08-26T12:44:40.460Z,29.60
2022-08-26T12:47:12.217Z,29.40
2022-08-26T12:49:43.875Z,29.20
2022-08-26T12:52:30.765Z,29.20
2022-08-26T12:55:13.634Z,28.50
2022-08-26T12:57:43.867Z,28.20
2022-08-26T13:00:29.827Z,27.60
2022-08-26T13:02:59.405Z,27.50
2022-08-26T13:05:33.854Z,27.40
2022-08-26T13:08:17.809Z,27.30
2022-08-26T13:10:49.037Z,27.30
2022-08-26T13:13:17.003Z,27.30
2022-08-26T13:15:45.324Z,27.30
2022-08-26T13:18:13.569Z,27.10
2022-08-26T13:20:44.838Z,27.10
2022-08-26T13:23:13.478Z,27.10
2022-08-26T13:25:41.717Z,27.20
2022-08-26T13:28:09.740Z,27.20
2022-08-26T13:30:37.800Z,27.30
2022-08-26T13:33:06.196Z,27.20
2022-08-26T13:35:34.403Z,27.20
2022-08-26T13:38:03.705Z,27.10
2022-08-26T13:40:34.585Z,27.30
2022-08-26T13:43:02.861Z,27.10
2022-08-26T13:45:31.616Z,27.00
2022-08-26T13:48:00.361Z,27.00
2022-08-26T13:50:28.444Z,27.10
2022-08-26T13:52:56.458Z,27.10
2022-08-26T13:55:25.829Z,27.10
2022-08-26T13:57:53.827Z,27.10
2022-08-26T14:00:22.917Z,27.00
2022-08-26T14:02:51.252Z,26.80
2022-08-26T14:05:19.338Z,26.80
2022-08-26T14:07:47.301Z,26.90
2022-08-26T14:10:15.316Z,27.10
2022-08-26T14:12:45.698Z,27.20
2022-08-26T14:15:16.233Z,27.20
2022-08-26T14:17:46.175Z,27.30
2022-08-26T14:20:16.945Z,27.30
2022-08-26T14:23:03.397Z,27.50
2022-08-26T14:25:34.449Z,27.60
2022-08-26T14:28:04.060Z,27.30
2022-08-26T14:30:32.925Z,27.30
2022-08-26T14:33:00.960Z,27.30
2022-08-26T14:35:31.656Z,27.30
2022-08-26T14:37:59.780Z,27.20
2022-08-26T14:40:33.994Z,27.20
2022-08-26T14:43:09.472Z,27.30
2022-08-26T14:48:14.459Z,27.30
2022-08-26T14:50:42.602Z,27.40
2022-08-26T14:53:28.147Z,27.50
2022-08-26T14:55:56.276Z,27.40
2022-08-26T14:58:25.653Z,27.20
2022-08-26T15:01:04.394Z,27.20
2022-08-26T15:03:32.548Z,26.90
2022-08-26T15:06:00.658Z,26.70
2022-08-26T15:08:28.698Z,26.70
2022-08-26T15:10:56.999Z,26.70
2022-08-26T15:13:26.426Z,26.60
2022-08-26T15:15:54.420Z,26.60
2022-08-26T15:18:23.460Z,26.60
2022-08-26T15:21:11.594Z,26.30
2022-08-26T15:23:40.545Z,26.30
2022-08-26T15:26:10.517Z,26.20
2022-08-26T15:28:40.329Z,26.20
2022-08-26T15:31:11.741Z,26.10
2022-08-26T15:33:43.479Z,26.10
2022-08-26T15:36:11.661Z,25.90
2022-08-26T15:38:42.265Z,25.90
2022-08-26T15:41:10.814Z,25.90
2022-08-26T15:43:40.160Z,25.80
2022-08-26T15:46:11.853Z,25.70
2022-08-26T15:48:40.487Z,25.60
2022-08-26T15:51:09.019Z,25.50
2022-08-26T15:53:37.466Z,25.50
2022-08-26T15:56:05.769Z,25.40
2022-08-26T15:58:34.598Z,25.40
2022-08-26T16:01:05.667Z,25.30
2022-08-26T16:03:33.989Z,25.30
2022-08-26T16:06:02.667Z,25.30
2022-08-26T16:08:30.798Z,25.30
2022-08-26T16:11:05.862Z,25.30
2022-08-26T16:13:39.894Z,25.30
2022-08-26T16:16:10.532Z,25.20
2022-08-26T16:18:38.691Z,25.10
2022-08-26T16:21:12.644Z,25.10
2022-08-26T16:23:45.202Z,25.20
2022-08-26T16:26:15.115Z,25.00
2022-08-26T16:28:43.629Z,25.00
2022-08-26T16:31:14.244Z,24.90
2022-08-26T16:33:42.559Z,24.90
2022-08-26T16:36:11.164Z,25.00
2022-08-26T16:38:39.882Z,25.00
2022-08-26T16:41:08.785Z,25.00
2022-08-26T16:43:37.100Z,24.80
2022-08-26T16:46:07.326Z,24.80
2022-08-26T16:48:37.707Z,24.80
2022-08-26T16:51:06.479Z,24.60
2022-08-26T16:53:34.726Z,24.70
2022-08-26T16:56:02.769Z,24.90
2022-08-26T16:58:31.288Z,24.80
2022-08-26T17:01:00.450Z,24.60
2022-08-26T17:03:28.709Z,24.70
2022-08-26T17:05:58.582Z,24.80
2022-08-26T17:08:28.752Z,24.70
2022-08-26T17:10:57.424Z,24.80
2022-08-26T17:13:34.813Z,24.60
2022-08-26T17:16:05.237Z,24.50
2022-08-26T17:18:33.842Z,24.50
2022-08-26T17:21:04.966Z,24.30
2022-08-26T17:23:33.395Z,24.20
2022-08-26T17:26:01.413Z,24.20
2022-08-26T17:28:29.403Z,24.20
2022-08-26T17:30:58.179Z,24.00
2022-08-26T17:33:27.150Z,24.10
2022-08-26T17:35:56.001Z,24.00
2022-08-26T17:38:25.942Z,23.80
2022-08-26T17:40:55.324Z,23.80
2022-08-26T17:43:26.709Z,23.80
2022-08-26T17:46:06.824Z,23.80
2022-08-26T17:48:42.399Z,23.80
2022-08-26T17:51:19.118Z,23.60
2022-08-26T17:53:48.942Z,23.70
2022-08-26T17:56:18.614Z,23.70
2022-08-26T17:58:51.148Z,23.60
2022-08-26T18:01:20.559Z,23.50
2022-08-26T18:03:51.147Z,23.50
2022-08-26T18:06:23.492Z,23.50
2022-08-26T18:08:56.178Z,23.40
2022-08-26T18:11:24.480Z,23.40
2022-08-26T18:13:54.490Z,23.30
2022-08-26T18:16:24.668Z,23.30
2022-08-26T18:18:53.645Z,23.30
2022-08-26T18:21:24.280Z,23.30
2022-08-26T18:23:54.610Z,23.20
2022-08-26T18:26:26.146Z,23.20
2022-08-26T18:28:54.274Z,23.20
2022-08-26T18:31:24.319Z,23.30
2022-08-26T18:33:54.812Z,23.30
2022-08-26T18:36:26.537Z,23.20
2022-08-26T18:38:57.200Z,23.30
2022-08-26T18:41:27.694Z,23.30
2022-08-26T18:43:56.565Z,23.20
2022-08-26T18:46:28.206Z,23.40
2022-08-26T18:48:58.904Z,23.10
2022-08-26T18:51:29.600Z,23.20
2022-08-26T18:54:00.540Z,23.40
2022-08-26T18:56:30.712Z,23.30
2022-08-26T18:58:59.865Z,23.10
2022-08-26T19:01:31.114Z,23.00
2022-08-26T19:04:03.135Z,22.90
2022-08-26T19:06:35.590Z,23.00
2022-08-26T19:09:06.673Z,23.10
2022-08-26T19:11:42.319Z,23.00
2022-08-26T19:14:14.306Z,23.10
2022-08-26T19:16:44.742Z,22.90
2022-08-26T19:19:14.790Z,23.00
2022-08-26T19:21:48.039Z,22.90
2022-08-26T19:24:18.786Z,22.90
2022-08-26T19:26:57.771Z,22.80
2022-08-26T19:29:30.419Z,22.80
2022-08-26T19:31:58.744Z,22.80
2022-08-26T19:34:27.111Z,22.90
2022-08-26T19:36:56.971Z,22.90
2022-08-26T19:39:27.144Z,23.10
2022-08-26T19:41:55.238Z,23.10
2022-08-26T19:44:27.272Z,22.80
2022-08-26T19:46:55.323Z,22.80
2022-08-26T19:49:23.408Z,22.80
2022-08-26T19:51:51.420Z,22.70
2022-08-26T19:54:22.797Z,22.60
2022-08-26T19:56:52.647Z,22.50
2022-08-26T19:59:20.886Z,22.60
2022-08-26T20:02:00.377Z,22.40
2022-08-26T20:04:29.997Z,22.40
2022-08-26T20:07:00.412Z,22.50
2022-08-26T20:09:29.268Z,22.40
2022-08-26T20:11:59.047Z,22.40
2022-08-26T20:14:27.955Z,22.30
2022-08-26T20:16:56.568Z,22.30
2022-08-26T20:19:42.525Z,22.40
2022-08-26T20:22:11.498Z,22.40
2022-08-26T20:24:42.803Z,22.30
2022-08-26T20:27:12.533Z,22.30
2022-08-26T20:29:41.006Z,22.20
2022-08-26T20:32:11.011Z,22.20
2022-08-26T20:34:40.101Z,22.20
2022-08-26T20:37:09.226Z,22.20
2022-08-26T20:39:37.460Z,22.20
2022-08-26T20:42:06.833Z,22.20
2022-08-26T20:44:54.987Z,22.20
2022-08-26T20:47:23.723Z,22.30
2022-08-26T20:49:52.495Z,22.20
2022-08-26T20:52:21.082Z,22.20
2022-08-26T20:54:49.120Z,22.10
2022-08-26T20:57:17.303Z,22.00
2022-08-26T20:59:47.708Z,22.10
2022-08-26T21:02:17.515Z,22.10
2022-08-26T21:04:45.676Z,22.00
2022-08-26T21:07:13.771Z,21.90
2022-08-26T21:09:42.143Z,21.90
2022-08-26T21:12:10.235Z,22.00
2022-08-26T21:14:38.352Z,21.90
2022-08-26T21:17:06.413Z,21.90
2022-08-26T21:19:35.728Z,21.70
2022-08-26T21:22:04.095Z,21.70
2022-08-26T21:24:33.965Z,21.70
2022-08-26T21:27:01.965Z,21.70
2022-08-26T21:29:30.059Z,21.70
2022-08-26T21:31:58.985Z,21.70
2022-08-26T21:34:27.103Z,21.80
2022-08-26T21:36:56.827Z,21.70
2022-08-26T21:39:26.213Z,21.60
2022-08-26T21:41:54.549Z,21.60
2022-08-26T21:44:22.543Z,21.50
2022-08-26T21:46:50.779Z,21.70
2022-08-26T21:49:18.853Z,21.70
2022-08-26T21:51:48.777Z,21.60
2022-08-26T21:54:19.041Z,21.60
2022-08-26T21:56:47.758Z,21.50
2022-08-26T21:59:18.384Z,21.50
2022-08-26T22:01:47.119Z,21.50
2022-08-26T22:04:15.908Z,21.50
2022-08-26T22:06:50.085Z,21.50
2022-08-26T22:09:22.852Z,21.50
2022-08-26T22:11:51.840Z,21.60
2022-08-26T22:14:21.979Z,21.50
2022-08-26T22:16:50.527Z,21.40
2022-08-26T22:19:21.087Z,21.40
2022-08-26T22:21:56.027Z,21.40
2022-08-26T22:24:26.927Z,21.40
2022-08-26T22:26:55.865Z,21.40
2022-08-26T22:29:25.165Z,21.50
2022-08-26T22:31:58.522Z,21.40
2022-08-26T22:34:38.733Z,21.40
2022-08-26T22:37:06.925Z,21.40
2022-08-26T22:39:39.280Z,21.40
2022-08-26T22:42:07.575Z,21.40
2022-08-26T22:44:37.548Z,21.30
2022-08-26T22:47:08.887Z,21.30
2022-08-26T22:49:44.128Z,21.30
2022-08-26T22:52:15.196Z,21.30
2022-08-26T22:54:45.778Z,21.30
2022-08-26T22:57:15.786Z,21.40
2022-08-26T22:59:43.751Z,21.20
2022-08-26T23:02:19.205Z,21.30
2022-08-26T23:04:47.268Z,21.30
2022-08-26T23:07:18.444Z,21.40
2022-08-26T23:09:47.946Z,21.30
2022-08-26T23:12:18.040Z,21.30
2022-08-26T23:14:46.211Z,21.30
2022-08-26T23:17:14.429Z,21.30
2022-08-26T23:19:45.294Z,21.30
2022-08-26T23:22:13.299Z,21.20
2022-08-26T23:24:41.506Z,21.40
2022-08-26T23:27:11.210Z,21.30
2022-08-26T23:29:41.805Z,21.30
2022-08-26T23:32:10.212Z,21.30
2022-08-26T23:34:56.110Z,21.20
2022-08-26T23:37:24.509Z,21.30
2022-08-26T23:39:55.085Z,21.20
2022-08-26T23:42:24.626Z,21.20
2022-08-26T23:44:59.290Z,21.20
2022-08-26T23:47:33.942Z,21.10
2022-08-26T23:50:04.208Z,21.30
2022-08-26T23:52:49.668Z,21.20
2022-08-26T23:55:17.874Z,21.10
2022-08-26T23:57:47.334Z,21.10
